sensor_id;sensor_type;location;lat;lon;timestamp;P1;durP1;ratioP1;P2;durP2;ratioP2
11504;SDS011;5809;53.262;10.408;2023-11-21T00:01:26;16.23;;;7.43;;
11504;SDS011;5809;53.262;10.408;2023-11-21T00:03:53;18.08;;;7.70;;
11504;SDS011;5809;53.262;10.408;2023-11-21T00:06:20;17.13;;;7.20;;
11504;SDS011;5809;53.262;10.408;2023-11-21T00:08:47;15.95;;;6.85;;
11504;SDS011;5809;53.262;10.408;2023-11-21T00:11:14;11.85;;;6.05;;
11504;SDS011;5809;53.262;10.408;2023-11-21T00:13:41;9.17;;;5.03;;
11504;SDS011;5809;53.262;10.408;2023-11-21T00:16:10;9.63;;;5.00;;
11504;SDS011;5809;53.262;10.408;2023-11-21T00:18:37;9.70;;;5.00;;
11504;SDS011;5809;53.262;10.408;2023-11-21T00:21:04;9.55;;;5.15;;
11504;SDS011;5809;53.262;10.408;2023-11-21T00:23:31;8.53;;;5.63;;
11504;SDS011;5809;53.262;10.408;2023-11-21T00:25:59;11.07;;;5.88;;
11504;SDS011;5809;53.262;10.408;2023-11-21T00:28:26;10.65;;;6.53;;
11504;SDS011;5809;53.262;10.408;2023-11-21T00:30:53;11.67;;;7.37;;
11504;SDS011;5809;53.262;10.408;2023-11-21T00:33:22;13.57;;;7.67;;
11504;SDS011;5809;53.262;10.408;2023-11-21T00:35:50;12.00;;;7.60;;
11504;SDS011;5809;53.262;10.408;2023-11-21T00:38:17;12.57;;;8.00;;
11504;SDS011;5809;53.262;10.408;2023-11-21T00:40:45;12.13;;;7.73;;
11504;SDS011;5809;53.262;10.408;2023-11-21T00:43:12;13.57;;;8.37;;
11504;SDS011;5809;53.262;10.408;2023-11-21T00:45:40;11.33;;;8.17;;
11504;SDS011;5809;53.262;10.408;2023-11-21T00:48:07;13.47;;;8.30;;
11504;SDS011;5809;53.262;10.408;2023-11-21T00:50:36;15.10;;;9.30;;
11504;SDS011;5809;53.262;10.408;2023-11-21T00:53:03;17.67;;;9.47;;
11504;SDS011;5809;53.262;10.408;2023-11-21T00:55:30;18.23;;;9.63;;
11504;SDS011;5809;53.262;10.408;2023-11-21T00:57:57;14.97;;;8.90;;
11504;SDS011;5809;53.262;10.408;2023-11-21T01:00:25;17.37;;;9.83;;
11504;SDS011;5809;53.262;10.408;2023-11-21T01:02:52;18.97;;;10.87;;
11504;SDS011;5809;53.262;10.408;2023-11-21T01:05:20;20.60;;;10.90;;
11504;SDS011;5809;53.262;10.408;2023-11-21T01:07:48;18.03;;;10.67;;
11504;SDS011;5809;53.262;10.408;2023-11-21T01:10:15;19.90;;;10.93;;
11504;SDS011;5809;53.262;10.408;2023-11-21T01:12:42;20.20;;;11.97;;
11504;SDS011;5809;53.262;10.408;2023-11-21T01:15:10;21.83;;;12.40;;
11504;SDS011;5809;53.262;10.408;2023-11-21T01:17:38;23.23;;;12.23;;
11504;SDS011;5809;53.262;10.408;2023-11-21T01:20:06;26.10;;;12.73;;
11504;SDS011;5809;53.262;10.408;2023-11-21T01:22:37;20.17;;;12.47;;
11504;SDS011;5809;53.262;10.408;2023-11-21T01:25:06;21.60;;;13.20;;
11504;SDS011;5809;53.262;10.408;2023-11-21T01:27:33;25.00;;;14.07;;
11504;SDS011;5809;53.262;10.408;2023-11-21T01:30:00;26.33;;;15.33;;
11504;SDS011;5809;53.262;10.408;2023-11-21T01:32:28;28.00;;;15.63;;
11504;SDS011;5809;53.262;10.408;2023-11-21T01:34:55;31.10;;;15.67;;
11504;SDS011;5809;53.262;10.408;2023-11-21T01:37:22;32.40;;;17.13;;
11504;SDS011;5809;53.262;10.408;2023-11-21T01:39:52;36.83;;;19.10;;
11504;SDS011;5809;53.262;10.408;2023-11-21T01:42:21;41.67;;;19.83;;
11504;SDS011;5809;53.262;10.408;2023-11-21T01:44:48;44.13;;;21.07;;
11504;SDS011;5809;53.262;10.408;2023-11-21T01:47:15;50.37;;;21.90;;
11504;SDS011;5809;53.262;10.408;2023-11-21T01:49:43;42.30;;;21.27;;
11504;SDS011;5809;53.262;10.408;2023-11-21T01:52:11;38.27;;;20.80;;
11504;SDS011;5809;53.262;10.408;2023-11-21T01:54:38;35.70;;;19.33;;
11504;SDS011;5809;53.262;10.408;2023-11-21T01:57:06;38.70;;;19.40;;
11504;SDS011;5809;53.262;10.408;2023-11-21T01:59:35;30.70;;;17.50;;
11504;SDS011;5809;53.262;10.408;2023-11-21T02:02:02;34.23;;;18.47;;
11504;SDS011;5809;53.262;10.408;2023-11-21T02:04:31;29.20;;;17.30;;
11504;SDS011;5809;53.262;10.408;2023-11-21T02:06:58;28.57;;;17.70;;
11504;SDS011;5809;53.262;10.408;2023-11-21T02:09:26;30.30;;;18.07;;
11504;SDS011;5809;53.262;10.408;2023-11-21T02:11:54;29.40;;;17.47;;
11504;SDS011;5809;53.262;10.408;2023-11-21T02:14:21;30.23;;;18.50;;
11504;SDS011;5809;53.262;10.408;2023-11-21T02:16:51;26.63;;;17.30;;
11504;SDS011;5809;53.262;10.408;2023-11-21T02:19:18;26.83;;;17.93;;
11504;SDS011;5809;53.262;10.408;2023-11-21T02:21:47;30.97;;;18.13;;
11504;SDS011;5809;53.262;10.408;2023-11-21T02:24:18;29.50;;;17.43;;
11504;SDS011;5809;53.262;10.408;2023-11-21T02:26:45;29.63;;;18.13;;
11504;SDS011;5809;53.262;10.408;2023-11-21T02:29:12;26.33;;;17.17;;
11504;SDS011;5809;53.262;10.408;2023-11-21T02:31:42;26.87;;;17.03;;
11504;SDS011;5809;53.262;10.408;2023-11-21T02:34:13;27.37;;;17.43;;
11504;SDS011;5809;53.262;10.408;2023-11-21T02:36:40;26.27;;;17.60;;
11504;SDS011;5809;53.262;10.408;2023-11-21T02:39:08;28.40;;;17.57;;
11504;SDS011;5809;53.262;10.408;2023-11-21T02:41:37;28.70;;;17.73;;
11504;SDS011;5809;53.262;10.408;2023-11-21T02:44:05;25.60;;;16.93;;
11504;SDS011;5809;53.262;10.408;2023-11-21T02:46:32;26.17;;;16.90;;
11504;SDS011;5809;53.262;10.408;2023-11-21T02:48:59;27.00;;;17.40;;
11504;SDS011;5809;53.262;10.408;2023-11-21T02:51:27;25.77;;;17.07;;
11504;SDS011;5809;53.262;10.408;2023-11-21T02:53:54;29.63;;;16.47;;
11504;SDS011;5809;53.262;10.408;2023-11-21T02:56:24;24.37;;;15.90;;
11504;SDS011;5809;53.262;10.408;2023-11-21T02:58:54;23.87;;;15.77;;
11504;SDS011;5809;53.262;10.408;2023-11-21T03:01:22;22.23;;;15.77;;
11504;SDS011;5809;53.262;10.408;2023-11-21T03:03:50;27.60;;;16.50;;
11504;SDS011;5809;53.262;10.408;2023-11-21T03:06:17;23.47;;;16.07;;
11504;SDS011;5809;53.262;10.408;2023-11-21T03:08:44;25.73;;;15.43;;
11504;SDS011;5809;53.262;10.408;2023-11-21T03:11:11;23.80;;;15.53;;
11504;SDS011;5809;53.262;10.408;2023-11-21T03:13:39;23.13;;;15.30;;
11504;SDS011;5809;53.262;10.408;2023-11-21T03:16:08;20.03;;;14.90;;
11504;SDS011;5809;53.262;10.408;2023-11-21T03:18:36;19.70;;;14.77;;
11504;SDS011;5809;53.262;10.408;2023-11-21T03:21:03;21.50;;;14.80;;
11504;SDS011;5809;53.262;10.408;2023-11-21T03:23:30;20.70;;;14.70;;
11504;SDS011;5809;53.262;10.408;2023-11-21T03:25:58;22.00;;;15.17;;
11504;SDS011;5809;53.262;10.408;2023-11-21T03:28:25;21.53;;;15.00;;
11504;SDS011;5809;53.262;10.408;2023-11-21T03:30:53;22.13;;;15.57;;
11504;SDS011;5809;53.262;10.408;2023-11-21T03:33:22;22.17;;;14.87;;
11504;SDS011;5809;53.262;10.408;2023-11-21T03:35:49;23.83;;;15.60;;
11504;SDS011;5809;53.262;10.408;2023-11-21T03:38:18;24.50;;;16.03;;
11504;SDS011;5809;53.262;10.408;2023-11-21T03:40:45;20.77;;;14.07;;
11504;SDS011;5809;53.262;10.408;2023-11-21T03:43:13;20.97;;;15.00;;
11504;SDS011;5809;53.262;10.408;2023-11-21T03:45:39;19.90;;;14.13;;
11504;SDS011;5809;53.262;10.408;2023-11-21T03:48:06;21.50;;;14.70;;
11504;SDS011;5809;53.262;10.408;2023-11-21T03:50:35;21.57;;;14.50;;
11504;SDS011;5809;53.262;10.408;2023-11-21T03:53:02;20.27;;;14.40;;
11504;SDS011;5809;53.262;10.408;2023-11-21T03:55:29;21.70;;;14.57;;
11504;SDS011;5809;53.262;10.408;2023-11-21T03:57:57;19.93;;;13.77;;
11504;SDS011;5809;53.262;10.408;2023-11-21T04:00:24;22.27;;;15.10;;
11504;SDS011;5809;53.262;10.408;2023-11-21T04:02:52;21.50;;;14.37;;
11504;SDS011;5809;53.262;10.408;2023-11-21T04:05:19;20.87;;;15.13;;
11504;SDS011;5809;53.262;10.408;2023-11-21T04:07:49;20.70;;;14.50;;
11504;SDS011;5809;53.262;10.408;2023-11-21T04:10:16;22.70;;;15.33;;
11504;SDS011;5809;53.262;10.408;2023-11-21T04:12:44;21.87;;;13.90;;
11504;SDS011;5809;53.262;10.408;2023-11-21T04:15:11;21.10;;;14.67;;
11504;SDS011;5809;53.262;10.408;2023-11-21T04:17:39;19.90;;;13.77;;
11504;SDS011;5809;53.262;10.408;2023-11-21T04:20:07;18.77;;;13.53;;
11504;SDS011;5809;53.262;10.408;2023-11-21T04:22:36;20.23;;;13.77;;
11504;SDS011;5809;53.262;10.408;2023-11-21T04:25:06;22.13;;;14.00;;
11504;SDS011;5809;53.262;10.408;2023-11-21T04:27:33;19.70;;;13.57;;
11504;SDS011;5809;53.262;10.408;2023-11-21T04:30:00;21.17;;;14.33;;
11504;SDS011;5809;53.262;10.408;2023-11-21T04:32:28;20.90;;;14.00;;
11504;SDS011;5809;53.262;10.408;2023-11-21T04:34:55;18.70;;;13.50;;
11504;SDS011;5809;53.262;10.408;2023-11-21T04:37:22;19.87;;;13.77;;
11504;SDS011;5809;53.262;10.408;2023-11-21T04:39:49;18.83;;;13.17;;
11504;SDS011;5809;53.262;10.408;2023-11-21T04:42:18;23.47;;;14.47;;
11504;SDS011;5809;53.262;10.408;2023-11-21T04:44:45;23.03;;;15.20;;
11504;SDS011;5809;53.262;10.408;2023-11-21T04:47:12;19.00;;;14.00;;
11504;SDS011;5809;53.262;10.408;2023-11-21T04:49:41;21.30;;;14.50;;
11504;SDS011;5809;53.262;10.408;2023-11-21T04:52:09;19.27;;;14.40;;
11504;SDS011;5809;53.262;10.408;2023-11-21T04:54:36;19.83;;;15.73;;
11504;SDS011;5809;53.262;10.408;2023-11-21T04:57:05;21.00;;;14.87;;
11504;SDS011;5809;53.262;10.408;2023-11-21T04:59:34;23.17;;;13.97;;
11504;SDS011;5809;53.262;10.408;2023-11-21T05:02:01;19.10;;;14.60;;
11504;SDS011;5809;53.262;10.408;2023-11-21T05:04:30;21.07;;;14.80;;
11504;SDS011;5809;53.262;10.408;2023-11-21T05:06:58;22.23;;;15.60;;
11504;SDS011;5809;53.262;10.408;2023-11-21T05:09:25;20.70;;;14.60;;
11504;SDS011;5809;53.262;10.408;2023-11-21T05:11:57;21.07;;;14.27;;
11504;SDS011;5809;53.262;10.408;2023-11-21T05:14:25;23.50;;;14.97;;
11504;SDS011;5809;53.262;10.408;2023-11-21T05:16:53;19.10;;;14.43;;
11504;SDS011;5809;53.262;10.408;2023-11-21T05:19:20;18.30;;;14.83;;
11504;SDS011;5809;53.262;10.408;2023-11-21T05:21:47;20.53;;;15.17;;
11504;SDS011;5809;53.262;10.408;2023-11-21T05:24:15;20.00;;;15.60;;
11504;SDS011;5809;53.262;10.408;2023-11-21T05:26:42;22.07;;;15.17;;
11504;SDS011;5809;53.262;10.408;2023-11-21T05:29:09;20.00;;;15.43;;
11504;SDS011;5809;53.262;10.408;2023-11-21T05:31:36;25.27;;;14.87;;
11504;SDS011;5809;53.262;10.408;2023-11-21T05:34:05;21.27;;;14.73;;
11504;SDS011;5809;53.262;10.408;2023-11-21T05:36:32;21.30;;;15.40;;
11504;SDS011;5809;53.262;10.408;2023-11-21T05:38:59;22.33;;;15.17;;
11504;SDS011;5809;53.262;10.408;2023-11-21T05:41:28;22.43;;;14.70;;
11504;SDS011;5809;53.262;10.408;2023-11-21T05:43:55;21.17;;;15.17;;
11504;SDS011;5809;53.262;10.408;2023-11-21T05:46:22;22.57;;;15.50;;
11504;SDS011;5809;53.262;10.408;2023-11-21T05:48:49;20.40;;;14.33;;
11504;SDS011;5809;53.262;10.408;2023-11-21T05:51:18;22.27;;;15.90;;
11504;SDS011;5809;53.262;10.408;2023-11-21T05:53:45;22.70;;;15.50;;
11504;SDS011;5809;53.262;10.408;2023-11-21T05:56:12;24.97;;;16.23;;
11504;SDS011;5809;53.262;10.408;2023-11-21T05:58:39;22.83;;;15.43;;
11504;SDS011;5809;53.262;10.408;2023-11-21T06:01:07;22.30;;;16.20;;
11504;SDS011;5809;53.262;10.408;2023-11-21T06:03:34;23.03;;;15.40;;
11504;SDS011;5809;53.262;10.408;2023-11-21T06:06:01;21.43;;;15.20;;
11504;SDS011;5809;53.262;10.408;2023-11-21T06:08:30;23.90;;;15.87;;
11504;SDS011;5809;53.262;10.408;2023-11-21T06:10:58;23.23;;;15.33;;
11504;SDS011;5809;53.262;10.408;2023-11-21T06:13:25;23.17;;;16.47;;
11504;SDS011;5809;53.262;10.408;2023-11-21T06:15:53;24.17;;;15.97;;
11504;SDS011;5809;53.262;10.408;2023-11-21T06:18:20;21.83;;;14.57;;
11504;SDS011;5809;53.262;10.408;2023-11-21T06:20:48;27.80;;;15.77;;
11504;SDS011;5809;53.262;10.408;2023-11-21T06:23:15;22.77;;;16.10;;
11504;SDS011;5809;53.262;10.408;2023-11-21T06:25:44;25.80;;;16.83;;
11504;SDS011;5809;53.262;10.408;2023-11-21T06:28:11;24.33;;;15.17;;
11504;SDS011;5809;53.262;10.408;2023-11-21T06:30:40;26.57;;;16.77;;
11504;SDS011;5809;53.262;10.408;2023-11-21T06:33:07;24.00;;;16.20;;
11504;SDS011;5809;53.262;10.408;2023-11-21T06:35:35;20.83;;;16.27;;
11504;SDS011;5809;53.262;10.408;2023-11-21T06:38:02;24.50;;;16.70;;
11504;SDS011;5809;53.262;10.408;2023-11-21T06:40:29;20.63;;;14.97;;
11504;SDS011;5809;53.262;10.408;2023-11-21T06:43:00;23.17;;;15.87;;
11504;SDS011;5809;53.262;10.408;2023-11-21T06:45:27;23.93;;;14.63;;
11504;SDS011;5809;53.262;10.408;2023-11-21T06:47:54;26.80;;;16.17;;
11504;SDS011;5809;53.262;10.408;2023-11-21T06:50:21;26.10;;;14.93;;
11504;SDS011;5809;53.262;10.408;2023-11-21T06:52:48;23.00;;;15.83;;
11504;SDS011;5809;53.262;10.408;2023-11-21T06:55:15;17.87;;;14.53;;
11504;SDS011;5809;53.262;10.408;2023-11-21T06:57:43;22.10;;;15.33;;
11504;SDS011;5809;53.262;10.408;2023-11-21T07:00:11;21.27;;;15.27;;
11504;SDS011;5809;53.262;10.408;2023-11-21T07:02:39;24.50;;;15.80;;
11504;SDS011;5809;53.262;10.408;2023-11-21T07:05:06;20.87;;;15.33;;
11504;SDS011;5809;53.262;10.408;2023-11-21T07:07:33;21.33;;;15.53;;
11504;SDS011;5809;53.262;10.408;2023-11-21T07:10:02;23.30;;;15.13;;
11504;SDS011;5809;53.262;10.408;2023-11-21T07:12:30;24.83;;;14.90;;
11504;SDS011;5809;53.262;10.408;2023-11-21T07:14:58;19.97;;;14.80;;
11504;SDS011;5809;53.262;10.408;2023-11-21T07:17:26;23.77;;;15.53;;
11504;SDS011;5809;53.262;10.408;2023-11-21T07:19:53;23.83;;;15.37;;
11504;SDS011;5809;53.262;10.408;2023-11-21T07:22:21;21.47;;;14.87;;
11504;SDS011;5809;53.262;10.408;2023-11-21T07:24:48;19.50;;;15.00;;
11504;SDS011;5809;53.262;10.408;2023-11-21T07:27:16;25.83;;;16.03;;
11504;SDS011;5809;53.262;10.408;2023-11-21T07:29:44;20.93;;;15.60;;
11504;SDS011;5809;53.262;10.408;2023-11-21T07:32:11;22.07;;;15.73;;
11504;SDS011;5809;53.262;10.408;2023-11-21T07:34:41;24.00;;;16.40;;
11504;SDS011;5809;53.262;10.408;2023-11-21T07:37:08;22.40;;;15.87;;
11504;SDS011;5809;53.262;10.408;2023-11-21T07:39:35;24.00;;;15.37;;
11504;SDS011;5809;53.262;10.408;2023-11-21T07:42:02;21.03;;;14.20;;
11504;SDS011;5809;53.262;10.408;2023-11-21T07:44:30;21.83;;;15.80;;
11504;SDS011;5809;53.262;10.408;2023-11-21T07:46:57;23.73;;;16.10;;
11504;SDS011;5809;53.262;10.408;2023-11-21T07:49:24;19.67;;;15.00;;
11504;SDS011;5809;53.262;10.408;2023-11-21T07:51:53;21.90;;;15.93;;
11504;SDS011;5809;53.262;10.408;2023-11-21T07:54:20;19.67;;;15.70;;
11504;SDS011;5809;53.262;10.408;2023-11-21T07:56:47;19.80;;;14.93;;
11504;SDS011;5809;53.262;10.408;2023-11-21T07:59:14;20.60;;;15.07;;
11504;SDS011;5809;53.262;10.408;2023-11-21T08:01:42;19.70;;;14.43;;
11504;SDS011;5809;53.262;10.408;2023-11-21T08:04:10;18.43;;;15.07;;
11504;SDS011;5809;53.262;10.408;2023-11-21T08:06:38;19.23;;;14.30;;
11504;SDS011;5809;53.262;10.408;2023-11-21T08:09:07;17.43;;;13.90;;
11504;SDS011;5809;53.262;10.408;2023-11-21T08:11:35;20.27;;;14.83;;
11504;SDS011;5809;53.262;10.408;2023-11-21T08:14:04;22.40;;;16.30;;
11504;SDS011;5809;53.262;10.408;2023-11-21T08:16:31;20.13;;;15.67;;
11504;SDS011;5809;53.262;10.408;2023-11-21T08:18:58;21.90;;;16.50;;
11504;SDS011;5809;53.262;10.408;2023-11-21T08:21:26;22.87;;;16.83;;
11504;SDS011;5809;53.262;10.408;2023-11-21T08:23:54;23.20;;;14.67;;
11504;SDS011;5809;53.262;10.408;2023-11-21T08:26:23;21.43;;;15.87;;
11504;SDS011;5809;53.262;10.408;2023-11-21T08:28:50;18.83;;;15.20;;
11504;SDS011;5809;53.262;10.408;2023-11-21T08:31:23;20.53;;;15.33;;
11504;SDS011;5809;53.262;10.408;2023-11-21T08:33:50;20.57;;;15.27;;
11504;SDS011;5809;53.262;10.408;2023-11-21T08:36:20;24.87;;;16.67;;
11504;SDS011;5809;53.262;10.408;2023-11-21T08:38:48;18.20;;;14.97;;
11504;SDS011;5809;53.262;10.408;2023-11-21T08:41:17;19.07;;;13.87;;
11504;SDS011;5809;53.262;10.408;2023-11-21T08:43:47;20.70;;;14.30;;
11504;SDS011;5809;53.262;10.408;2023-11-21T08:46:14;20.37;;;13.90;;
11504;SDS011;5809;53.262;10.408;2023-11-21T08:48:43;15.07;;;13.10;;
11504;SDS011;5809;53.262;10.408;2023-11-21T08:51:10;17.10;;;13.37;;
11504;SDS011;5809;53.262;10.408;2023-11-21T08:53:39;15.13;;;12.20;;
11504;SDS011;5809;53.262;10.408;2023-11-21T08:56:06;15.83;;;12.23;;
11504;SDS011;5809;53.262;10.408;2023-11-21T08:58:34;15.57;;;11.90;;
11504;SDS011;5809;53.262;10.408;2023-11-21T09:01:03;14.77;;;11.67;;
11504;SDS011;5809;53.262;10.408;2023-11-21T09:03:31;16.57;;;12.70;;
11504;SDS011;5809;53.262;10.408;2023-11-21T09:05:59;13.63;;;11.53;;
11504;SDS011;5809;53.262;10.408;2023-11-21T09:08:27;14.13;;;11.70;;
11504;SDS011;5809;53.262;10.408;2023-11-21T09:10:54;16.10;;;11.10;;
11504;SDS011;5809;53.262;10.408;2023-11-21T09:13:22;15.00;;;10.70;;
11504;SDS011;5809;53.262;10.408;2023-11-21T09:15:50;13.40;;;10.40;;
11504;SDS011;5809;53.262;10.408;2023-11-21T09:18:18;12.13;;;9.97;;
11504;SDS011;5809;53.262;10.408;2023-11-21T09:20:46;11.80;;;10.00;;
11504;SDS011;5809;53.262;10.408;2023-11-21T09:23:13;15.00;;;9.17;;
11504;SDS011;5809;53.262;10.408;2023-11-21T09:25:40;11.33;;;8.63;;
11504;SDS011;5809;53.262;10.408;2023-11-21T09:28:11;10.07;;;8.43;;
11504;SDS011;5809;53.262;10.408;2023-11-21T09:30:38;11.83;;;8.83;;
11504;SDS011;5809;53.262;10.408;2023-11-21T09:33:05;13.60;;;8.53;;
11504;SDS011;5809;53.262;10.408;2023-11-21T09:35:37;10.13;;;8.67;;
11504;SDS011;5809;53.262;10.408;2023-11-21T09:38:04;9.47;;;8.20;;
11504;SDS011;5809;53.262;10.408;2023-11-21T09:40:35;11.80;;;8.60;;
11504;SDS011;5809;53.262;10.408;2023-11-21T09:43:02;11.13;;;7.87;;
11504;SDS011;5809;53.262;10.408;2023-11-21T09:45:34;10.77;;;7.57;;
11504;SDS011;5809;53.262;10.408;2023-11-21T09:48:02;8.50;;;6.67;;
11504;SDS011;5809;53.262;10.408;2023-11-21T09:50:31;12.50;;;8.90;;
11504;SDS011;5809;53.262;10.408;2023-11-21T09:53:04;11.37;;;7.00;;
11504;SDS011;5809;53.262;10.408;2023-11-21T09:55:39;13.53;;;10.33;;
11504;SDS011;5809;53.262;10.408;2023-11-21T09:58:09;36.37;;;27.80;;
11504;SDS011;5809;53.262;10.408;2023-11-21T10:00:37;8.23;;;6.93;;
11504;SDS011;5809;53.262;10.408;2023-11-21T10:03:06;7.37;;;6.57;;
11504;SDS011;5809;53.262;10.408;2023-11-21T10:05:33;7.80;;;6.63;;
11504;SDS011;5809;53.262;10.408;2023-11-21T10:08:00;10.27;;;6.43;;
11504;SDS011;5809;53.262;10.408;2023-11-21T10:10:29;8.57;;;6.47;;
11504;SDS011;5809;53.262;10.408;2023-11-21T10:13:01;7.93;;;6.07;;
11504;SDS011;5809;53.262;10.408;2023-11-21T10:15:31;7.43;;;6.63;;
11504;SDS011;5809;53.262;10.408;2023-11-21T10:18:01;6.73;;;5.33;;
11504;SDS011;5809;53.262;10.408;2023-11-21T10:20:29;7.63;;;5.53;;
11504;SDS011;5809;53.262;10.408;2023-11-21T10:22:57;6.87;;;6.17;;
11504;SDS011;5809;53.262;10.408;2023-11-21T10:25:24;7.43;;;5.97;;
11504;SDS011;5809;53.262;10.408;2023-11-21T10:27:56;6.57;;;4.80;;
11504;SDS011;5809;53.262;10.408;2023-11-21T10:30:27;6.57;;;4.90;;
11504;SDS011;5809;53.262;10.408;2023-11-21T10:32:58;6.77;;;5.10;;
11504;SDS011;5809;53.262;10.408;2023-11-21T10:35:29;8.77;;;4.90;;
11504;SDS011;5809;53.262;10.408;2023-11-21T10:38:05;6.50;;;4.80;;
11504;SDS011;5809;53.262;10.408;2023-11-21T10:40:35;7.10;;;5.37;;
11504;SDS011;5809;53.262;10.408;2023-11-21T10:43:08;5.90;;;4.97;;
11504;SDS011;5809;53.262;10.408;2023-11-21T10:45:36;5.60;;;4.70;;
11504;SDS011;5809;53.262;10.408;2023-11-21T10:48:06;6.80;;;4.93;;
11504;SDS011;5809;53.262;10.408;2023-11-21T10:50:35;4.90;;;4.40;;
11504;SDS011;5809;53.262;10.408;2023-11-21T10:53:03;6.28;;;4.38;;
11504;SDS011;5809;53.262;10.408;2023-11-21T10:55:31;5.40;;;4.63;;
11504;SDS011;5809;53.262;10.408;2023-11-21T10:57:58;5.07;;;4.40;;
11504;SDS011;5809;53.262;10.408;2023-11-21T11:00:28;6.18;;;4.95;;
11504;SDS011;5809;53.262;10.408;2023-11-21T11:02:55;4.75;;;4.07;;
11504;SDS011;5809;53.262;10.408;2023-11-21T11:05:24;5.87;;;4.30;;
11504;SDS011;5809;53.262;10.408;2023-11-21T11:07:53;5.90;;;4.43;;
11504;SDS011;5809;53.262;10.408;2023-11-21T11:10:25;4.93;;;4.40;;
11504;SDS011;5809;53.262;10.408;2023-11-21T11:12:53;7.37;;;4.83;;
11504;SDS011;5809;53.262;10.408;2023-11-21T11:15:20;5.03;;;4.53;;
11504;SDS011;5809;53.262;10.408;2023-11-21T11:17:49;5.30;;;4.57;;
11504;SDS011;5809;53.262;10.408;2023-11-21T11:20:17;7.13;;;4.13;;
11504;SDS011;5809;53.262;10.408;2023-11-21T11:22:48;5.53;;;4.90;;
11504;SDS011;5809;53.262;10.408;2023-11-21T11:25:30;6.57;;;5.67;;
11504;SDS011;5809;53.262;10.408;2023-11-21T11:28:04;9.20;;;8.20;;
11504;SDS011;5809;53.262;10.408;2023-11-21T11:30:39;8.33;;;6.87;;
11504;SDS011;5809;53.262;10.408;2023-11-21T11:33:21;5.60;;;4.37;;
11504;SDS011;5809;53.262;10.408;2023-11-21T11:35:52;5.70;;;5.10;;
11504;SDS011;5809;53.262;10.408;2023-11-21T11:38:21;7.00;;;4.43;;
11504;SDS011;5809;53.262;10.408;2023-11-21T11:40:52;4.57;;;3.88;;
11504;SDS011;5809;53.262;10.408;2023-11-21T11:43:24;7.10;;;4.03;;
11504;SDS011;5809;53.262;10.408;2023-11-21T11:45:51;5.90;;;4.07;;
11504;SDS011;5809;53.262;10.408;2023-11-21T11:48:21;6.23;;;4.10;;
11504;SDS011;5809;53.262;10.408;2023-11-21T11:51:00;11.43;;;6.87;;
11504;SDS011;5809;53.262;10.408;2023-11-21T11:53:32;10.00;;;6.60;;
11504;SDS011;5809;53.262;10.408;2023-11-21T11:56:14;12.30;;;8.07;;
11504;SDS011;5809;53.262;10.408;2023-11-21T11:58:46;19.33;;;10.60;;
11504;SDS011;5809;53.262;10.408;2023-11-21T12:01:15;12.67;;;8.43;;
11504;SDS011;5809;53.262;10.408;2023-11-21T12:03:45;9.87;;;7.33;;
11504;SDS011;5809;53.262;10.408;2023-11-21T12:06:33;8.37;;;6.10;;
11504;SDS011;5809;53.262;10.408;2023-11-21T12:09:00;13.80;;;7.63;;
11504;SDS011;5809;53.262;10.408;2023-11-21T12:11:30;7.77;;;5.10;;
11504;SDS011;5809;53.262;10.408;2023-11-21T12:13:57;8.10;;;5.27;;
11504;SDS011;5809;53.262;10.408;2023-11-21T12:16:25;4.70;;;3.70;;
11504;SDS011;5809;53.262;10.408;2023-11-21T12:18:54;5.57;;;3.70;;
11504;SDS011;5809;53.262;10.408;2023-11-21T12:21:22;6.40;;;4.83;;
11504;SDS011;5809;53.262;10.408;2023-11-21T12:23:49;5.50;;;4.50;;
11504;SDS011;5809;53.262;10.408;2023-11-21T12:26:16;10.83;;;6.50;;
11504;SDS011;5809;53.262;10.408;2023-11-21T12:28:43;6.90;;;4.37;;
11504;SDS011;5809;53.262;10.408;2023-11-21T12:31:10;5.00;;;3.93;;
11504;SDS011;5809;53.262;10.408;2023-11-21T12:33:37;9.70;;;7.50;;
11504;SDS011;5809;53.262;10.408;2023-11-21T12:36:07;10.33;;;7.23;;
11504;SDS011;5809;53.262;10.408;2023-11-21T12:38:36;6.17;;;4.77;;
11504;SDS011;5809;53.262;10.408;2023-11-21T12:41:03;5.80;;;4.47;;
11504;SDS011;5809;53.262;10.408;2023-11-21T12:43:31;4.80;;;3.97;;
11504;SDS011;5809;53.262;10.408;2023-11-21T12:46:04;5.37;;;4.77;;
11504;SDS011;5809;53.262;10.408;2023-11-21T12:48:31;4.68;;;4.18;;
11504;SDS011;5809;53.262;10.408;2023-11-21T12:50:58;5.37;;;4.27;;
11504;SDS011;5809;53.262;10.408;2023-11-21T12:53:28;5.97;;;4.30;;
11504;SDS011;5809;53.262;10.408;2023-11-21T12:56:02;5.57;;;3.87;;
11504;SDS011;5809;53.262;10.408;2023-11-21T12:58:30;4.47;;;3.63;;
11504;SDS011;5809;53.262;10.408;2023-11-21T13:00:58;5.77;;;4.40;;
11504;SDS011;5809;53.262;10.408;2023-11-21T13:03:29;7.30;;;4.33;;
11504;SDS011;5809;53.262;10.408;2023-11-21T13:05:56;5.77;;;3.53;;
11504;SDS011;5809;53.262;10.408;2023-11-21T13:08:24;5.13;;;3.67;;
11504;SDS011;5809;53.262;10.408;2023-11-21T13:10:53;7.00;;;4.07;;
11504;SDS011;5809;53.262;10.408;2023-11-21T13:13:22;5.57;;;4.00;;
11504;SDS011;5809;53.262;10.408;2023-11-21T13:15:50;5.10;;;4.03;;
11504;SDS011;5809;53.262;10.408;2023-11-21T13:18:20;4.63;;;3.83;;
11504;SDS011;5809;53.262;10.408;2023-11-21T13:20:48;6.00;;;4.17;;
11504;SDS011;5809;53.262;10.408;2023-11-21T13:23:15;6.07;;;3.87;;
11504;SDS011;5809;53.262;10.408;2023-11-21T13:25:43;4.87;;;3.97;;
11504;SDS011;5809;53.262;10.408;2023-11-21T13:28:14;6.20;;;4.60;;
11504;SDS011;5809;53.262;10.408;2023-11-21T13:30:41;4.90;;;4.30;;
11504;SDS011;5809;53.262;10.408;2023-11-21T13:33:09;6.10;;;4.83;;
11504;SDS011;5809;53.262;10.408;2023-11-21T13:35:43;6.13;;;3.83;;
11504;SDS011;5809;53.262;10.408;2023-11-21T13:38:14;7.63;;;3.60;;
11504;SDS011;5809;53.262;10.408;2023-11-21T13:40:42;5.37;;;4.17;;
11504;SDS011;5809;53.262;10.408;2023-11-21T13:43:16;5.47;;;4.33;;
11504;SDS011;5809;53.262;10.408;2023-11-21T13:45:45;7.70;;;4.40;;
11504;SDS011;5809;53.262;10.408;2023-11-21T13:48:13;18.90;;;6.63;;
11504;SDS011;5809;53.262;10.408;2023-11-21T13:50:45;7.37;;;5.13;;
11504;SDS011;5809;53.262;10.408;2023-11-21T13:53:20;9.30;;;6.73;;
11504;SDS011;5809;53.262;10.408;2023-11-21T13:55:48;7.57;;;5.10;;
11504;SDS011;5809;53.262;10.408;2023-11-21T13:58:17;7.20;;;4.97;;
11504;SDS011;5809;53.262;10.408;2023-11-21T14:00:48;6.13;;;4.47;;
11504;SDS011;5809;53.262;10.408;2023-11-21T14:03:21;9.23;;;4.47;;
11504;SDS011;5809;53.262;10.408;2023-11-21T14:05:57;6.67;;;4.60;;
11504;SDS011;5809;53.262;10.408;2023-11-21T14:08:25;4.90;;;4.40;;
11504;SDS011;5809;53.262;10.408;2023-11-21T14:10:53;6.27;;;5.03;;
11504;SDS011;5809;53.262;10.408;2023-11-21T14:13:24;5.27;;;4.63;;
11504;SDS011;5809;53.262;10.408;2023-11-21T14:15:51;7.17;;;4.63;;
11504;SDS011;5809;53.262;10.408;2023-11-21T14:18:22;5.17;;;4.67;;
11504;SDS011;5809;53.262;10.408;2023-11-21T14:20:55;6.90;;;4.80;;
11504;SDS011;5809;53.262;10.408;2023-11-21T14:23:22;6.73;;;5.20;;
11504;SDS011;5809;53.262;10.408;2023-11-21T14:25:49;7.10;;;5.10;;
11504;SDS011;5809;53.262;10.408;2023-11-21T14:28:17;6.00;;;4.60;;
11504;SDS011;5809;53.262;10.408;2023-11-21T14:30:46;8.00;;;4.70;;
11504;SDS011;5809;53.262;10.408;2023-11-21T14:33:13;6.77;;;4.80;;
11504;SDS011;5809;53.262;10.408;2023-11-21T14:35:41;8.87;;;5.07;;
11504;SDS011;5809;53.262;10.408;2023-11-21T14:38:08;5.67;;;5.00;;